sensor_id;sensor_type;location;lat;lon;timestamp;temperature;humidity
44111;DHT22;29774;52.664;5.074;2023-06-22T00:00:51;18.10;79.10
44111;DHT22;29774;52.664;5.074;2023-06-22T00:03:18;18.20;79.30
44111;DHT22;29774;52.664;5.074;2023-06-22T00:05:45;18.00;79.50
44111;DHT22;29774;52.664;5.074;2023-06-22T00:08:11;18.00;79.80
44111;DHT22;29774;52.664;5.074;2023-06-22T00:10:37;18.00;79.60
44111;DHT22;29774;52.664;5.074;2023-06-22T00:13:03;17.90;79.60
44111;DHT22;29774;52.664;5.074;2023-06-22T00:15:28;17.90;79.40
44111;DHT22;29774;52.664;5.074;2023-06-22T00:17:54;17.90;79.40
44111;DHT22;29774;52.664;5.074;2023-06-22T00:20:20;17.90;79.70
44111;DHT22;29774;52.664;5.074;2023-06-22T00:22:45;17.90;79.90
44111;DHT22;29774;52.664;5.074;2023-06-22T00:25:11;17.90;80.00
44111;DHT22;29774;52.664;5.074;2023-06-22T00:27:37;18.00;80.40
44111;DHT22;29774;52.664;5.074;2023-06-22T00:30:03;17.90;79.50
44111;DHT22;29774;52.664;5.074;2023-06-22T00:32:29;17.90;79.00
44111;DHT22;29774;52.664;5.074;2023-06-22T00:34:54;17.80;79.10
44111;DHT22;29774;52.664;5.074;2023-06-22T00:37:20;17.70;79.30
44111;DHT22;29774;52.664;5.074;2023-06-22T00:39:51;17.70;79.60
44111;DHT22;29774;52.664;5.074;2023-06-22T00:42:17;17.70;80.20
44111;DHT22;29774;52.664;5.074;2023-06-22T00:44:42;17.70;80.40
44111;DHT22;29774;52.664;5.074;2023-06-22T00:47:09;17.70;80.40
44111;DHT22;29774;52.664;5.074;2023-06-22T00:49:34;17.80;80.50
44111;DHT22;29774;52.664;5.074;2023-06-22T00:52:00;17.80;81.00
44111;DHT22;29774;52.664;5.074;2023-06-22T00:54:26;17.90;81.20
44111;DHT22;29774;52.664;5.074;2023-06-22T00:56:54;17.80;80.90
44111;DHT22;29774;52.664;5.074;2023-06-22T00:59:22;17.80;80.70
44111;DHT22;29774;52.664;5.074;2023-06-22T01:01:48;17.80;80.70
44111;DHT22;29774;52.664;5.074;2023-06-22T01:04:14;17.80;81.20
44111;DHT22;29774;52.664;5.074;2023-06-22T01:07:02;17.80;81.20
44111;DHT22;29774;52.664;5.074;2023-06-22T01:09:35;17.80;81.10
44111;DHT22;29774;52.664;5.074;2023-06-22T01:12:06;17.80;80.90
44111;DHT22;29774;52.664;5.074;2023-06-22T01:14:39;17.70;80.80
44111;DHT22;29774;52.664;5.074;2023-06-22T01:17:08;17.70;80.80
44111;DHT22;29774;52.664;5.074;2023-06-22T01:22:22;17.70;81.80
44111;DHT22;29774;52.664;5.074;2023-06-22T01:30:31;17.70;82.20
44111;DHT22;29774;52.664;5.074;2023-06-22T01:33:00;17.70;82.00
44111;DHT22;29774;52.664;5.074;2023-06-22T01:35:27;17.80;81.90
44111;DHT22;29774;52.664;5.074;2023-06-22T01:37:54;17.70;81.80
44111;DHT22;29774;52.664;5.074;2023-06-22T01:40:21;17.70;81.70
44111;DHT22;29774;52.664;5.074;2023-06-22T01:42:47;17.80;81.90
44111;DHT22;29774;52.664;5.074;2023-06-22T01:45:13;17.70;81.70
44111;DHT22;29774;52.664;5.074;2023-06-22T01:47:40;17.70;81.50
44111;DHT22;29774;52.664;5.074;2023-06-22T01:50:07;17.70;81.60
44111;DHT22;29774;52.664;5.074;2023-06-22T01:52:33;17.60;81.40
44111;DHT22;29774;52.664;5.074;2023-06-22T01:55:00;17.70;81.20
44111;DHT22;29774;52.664;5.074;2023-06-22T01:57:26;17.70;81.00
44111;DHT22;29774;52.664;5.074;2023-06-22T02:00:04;17.60;80.90
44111;DHT22;29774;52.664;5.074;2023-06-22T02:02:36;17.60;80.80
44111;DHT22;29774;52.664;5.074;2023-06-22T02:05:06;17.50;80.80
44111;DHT22;29774;52.664;5.074;2023-06-22T02:10:34;17.50;80.90
44111;DHT22;29774;52.664;5.074;2023-06-22T02:13:01;17.70;81.20
44111;DHT22;29774;52.664;5.074;2023-06-22T02:15:28;17.70;81.40
44111;DHT22;29774;52.664;5.074;2023-06-22T02:17:54;17.80;81.10
44111;DHT22;29774;52.664;5.074;2023-06-22T02:20:19;17.70;80.80
44111;DHT22;29774;52.664;5.074;2023-06-22T02:22:45;17.70;81.10
44111;DHT22;29774;52.664;5.074;2023-06-22T02:25:11;17.70;81.60
44111;DHT22;29774;52.664;5.074;2023-06-22T02:27:37;17.70;81.80
44111;DHT22;29774;52.664;5.074;2023-06-22T02:30:07;17.70;81.40
44111;DHT22;29774;52.664;5.074;2023-06-22T02:32:33;17.70;81.60
44111;DHT22;29774;52.664;5.074;2023-06-22T02:35:00;17.70;81.40
44111;DHT22;29774;52.664;5.074;2023-06-22T02:37:30;17.80;81.70
44111;DHT22;29774;52.664;5.074;2023-06-22T02:39:56;17.70;81.70
44111;DHT22;29774;52.664;5.074;2023-06-22T02:42:21;17.60;81.20
44111;DHT22;29774;52.664;5.074;2023-06-22T02:44:47;17.50;81.00
44111;DHT22;29774;52.664;5.074;2023-06-22T02:47:13;17.40;81.00
44111;DHT22;29774;52.664;5.074;2023-06-22T02:49:38;17.30;81.00
44111;DHT22;29774;52.664;5.074;2023-06-22T02:52:04;17.30;81.10
44111;DHT22;29774;52.664;5.074;2023-06-22T02:54:30;17.30;81.10
44111;DHT22;29774;52.664;5.074;2023-06-22T02:56:56;17.30;81.30
44111;DHT22;29774;52.664;5.074;2023-06-22T02:59:21;17.30;81.50
44111;DHT22;29774;52.664;5.074;2023-06-22T03:01:49;17.30;81.40
44111;DHT22;29774;52.664;5.074;2023-06-22T03:04:15;17.30;81.30
44111;DHT22;29774;52.664;5.074;2023-06-22T03:06:41;17.30;81.30
44111;DHT22;29774;52.664;5.074;2023-06-22T03:09:07;17.30;81.30
44111;DHT22;29774;52.664;5.074;2023-06-22T03:11:33;17.20;81.10
44111;DHT22;29774;52.664;5.074;2023-06-22T03:14:00;17.20;81.50
44111;DHT22;29774;52.664;5.074;2023-06-22T03:16:26;17.20;81.60
44111;DHT22;29774;52.664;5.074;2023-06-22T03:18:52;17.20;81.50
44111;DHT22;29774;52.664;5.074;2023-06-22T03:21:22;17.20;81.20
44111;DHT22;29774;52.664;5.074;2023-06-22T03:23:48;17.20;81.50
44111;DHT22;29774;52.664;5.074;2023-06-22T03:26:17;17.20;81.90
44111;DHT22;29774;52.664;5.074;2023-06-22T03:28:43;17.20;81.90
44111;DHT22;29774;52.664;5.074;2023-06-22T03:31:08;17.20;82.20
44111;DHT22;29774;52.664;5.074;2023-06-22T03:36:44;17.20;81.60
44111;DHT22;29774;52.664;5.074;2023-06-22T03:39:10;17.20;81.60
44111;DHT22;29774;52.664;5.074;2023-06-22T03:41:36;17.20;81.80
44111;DHT22;29774;52.664;5.074;2023-06-22T03:44:01;17.20;81.90
44111;DHT22;29774;52.664;5.074;2023-06-22T03:46:27;17.30;81.90
44111;DHT22;29774;52.664;5.074;2023-06-22T03:48:53;17.20;81.80
44111;DHT22;29774;52.664;5.074;2023-06-22T03:51:18;17.20;81.70
44111;DHT22;29774;52.664;5.074;2023-06-22T03:53:44;17.10;82.30
44111;DHT22;29774;52.664;5.074;2023-06-22T03:56:10;17.20;82.20
44111;DHT22;29774;52.664;5.074;2023-06-22T03:58:35;17.20;82.30
44111;DHT22;29774;52.664;5.074;2023-06-22T04:01:02;17.20;82.40
44111;DHT22;29774;52.664;5.074;2023-06-22T04:03:27;17.20;82.60
44111;DHT22;29774;52.664;5.074;2023-06-22T04:05:53;17.30;82.80
44111;DHT22;29774;52.664;5.074;2023-06-22T04:08:19;17.30;83.10
44111;DHT22;29774;52.664;5.074;2023-06-22T04:10:44;17.30;83.20
44111;DHT22;29774;52.664;5.074;2023-06-22T04:13:10;17.30;83.40
44111;DHT22;29774;52.664;5.074;2023-06-22T04:15:36;17.40;84.00
44111;DHT22;29774;52.664;5.074;2023-06-22T04:18:03;17.40;84.30
44111;DHT22;29774;52.664;5.074;2023-06-22T04:20:28;17.40;84.40
44111;DHT22;29774;52.664;5.074;2023-06-22T04:22:54;17.50;84.80
44111;DHT22;29774;52.664;5.074;2023-06-22T04:25:21;17.60;84.80
44111;DHT22;29774;52.664;5.074;2023-06-22T04:27:47;17.60;84.80
44111;DHT22;29774;52.664;5.074;2023-06-22T04:30:14;17.70;84.90
44111;DHT22;29774;52.664;5.074;2023-06-22T04:32:44;17.70;85.00
44111;DHT22;29774;52.664;5.074;2023-06-22T04:35:11;17.80;85.50
44111;DHT22;29774;52.664;5.074;2023-06-22T04:37:37;17.90;85.80
44111;DHT22;29774;52.664;5.074;2023-06-22T04:40:05;17.90;86.00
44111;DHT22;29774;52.664;5.074;2023-06-22T04:42:34;17.90;86.10
44111;DHT22;29774;52.664;5.074;2023-06-22T04:45:03;18.00;86.40
44111;DHT22;29774;52.664;5.074;2023-06-22T04:47:28;18.10;86.50
44111;DHT22;29774;52.664;5.074;2023-06-22T04:49:56;18.20;86.70
44111;DHT22;29774;52.664;5.074;2023-06-22T04:52:21;18.20;86.90
44111;DHT22;29774;52.664;5.074;2023-06-22T04:54:47;18.20;87.20
44111;DHT22;29774;52.664;5.074;2023-06-22T04:57:13;18.30;87.30
44111;DHT22;29774;52.664;5.074;2023-06-22T04:59:40;18.50;87.40
44111;DHT22;29774;52.664;5.074;2023-06-22T05:02:07;18.50;87.60
44111;DHT22;29774;52.664;5.074;2023-06-22T05:04:33;18.60;87.80
44111;DHT22;29774;52.664;5.074;2023-06-22T05:07:02;18.70;88.00
44111;DHT22;29774;52.664;5.074;2023-06-22T05:09:28;18.70;88.20
44111;DHT22;29774;52.664;5.074;2023-06-22T05:11:54;18.80;88.40
44111;DHT22;29774;52.664;5.074;2023-06-22T05:14:22;18.90;88.60
44111;DHT22;29774;52.664;5.074;2023-06-22T05:16:48;19.00;88.90
44111;DHT22;29774;52.664;5.074;2023-06-22T05:19:14;19.10;88.90
44111;DHT22;29774;52.664;5.074;2023-06-22T05:21:40;19.20;89.10
44111;DHT22;29774;52.664;5.074;2023-06-22T05:24:06;19.30;89.20
44111;DHT22;29774;52.664;5.074;2023-06-22T05:26:33;19.30;89.40
44111;DHT22;29774;52.664;5.074;2023-06-22T05:29:00;19.50;89.40
44111;DHT22;29774;52.664;5.074;2023-06-22T05:31:27;19.60;89.40
44111;DHT22;29774;52.664;5.074;2023-06-22T05:33:55;19.70;89.50
44111;DHT22;29774;52.664;5.074;2023-06-22T05:36:21;19.80;89.50
44111;DHT22;29774;52.664;5.074;2023-06-22T05:38:51;19.90;89.50
44111;DHT22;29774;52.664;5.074;2023-06-22T05:41:16;20.00;89.30
44111;DHT22;29774;52.664;5.074;2023-06-22T05:43:42;20.00;89.10
44111;DHT22;29774;52.664;5.074;2023-06-22T05:46:08;19.90;88.60
44111;DHT22;29774;52.664;5.074;2023-06-22T05:48:33;20.00;88.50
44111;DHT22;29774;52.664;5.074;2023-06-22T05:50:59;20.10;88.70
44111;DHT22;29774;52.664;5.074;2023-06-22T05:53:25;20.20;88.80
44111;DHT22;29774;52.664;5.074;2023-06-22T05:55:50;20.20;88.20
44111;DHT22;29774;52.664;5.074;2023-06-22T05:58:16;20.20;87.60
44111;DHT22;29774;52.664;5.074;2023-06-22T06:00:42;20.20;87.50
44111;DHT22;29774;52.664;5.074;2023-06-22T06:03:09;20.30;87.40
44111;DHT22;29774;52.664;5.074;2023-06-22T06:05:36;20.40;87.60
44111;DHT22;29774;52.664;5.074;2023-06-22T06:08:04;20.50;87.80
44111;DHT22;29774;52.664;5.074;2023-06-22T06:10:33;20.50;86.90
44111;DHT22;29774;52.664;5.074;2023-06-22T06:12:59;20.70;86.60
44111;DHT22;29774;52.664;5.074;2023-06-22T06:15:30;20.80;85.80
44111;DHT22;29774;52.664;5.074;2023-06-22T06:17:58;20.90;85.00
44111;DHT22;29774;52.664;5.074;2023-06-22T06:20:25;21.10;83.60
44111;DHT22;29774;52.664;5.074;2023-06-22T06:22:53;21.30;82.80
44111;DHT22;29774;52.664;5.074;2023-06-22T06:25:18;21.40;81.70
44111;DHT22;29774;52.664;5.074;2023-06-22T06:27:47;21.50;81.00
44111;DHT22;29774;52.664;5.074;2023-06-22T06:30:15;21.60;81.20
44111;DHT22;29774;52.664;5.074;2023-06-22T06:32:42;21.60;80.80
44111;DHT22;29774;52.664;5.074;2023-06-22T06:35:09;21.70;80.50
44111;DHT22;29774;52.664;5.074;2023-06-22T06:37:43;21.80;78.70
44111;DHT22;29774;52.664;5.074;2023-06-22T06:40:11;21.90;78.20
44111;DHT22;29774;52.664;5.074;2023-06-22T06:42:45;22.10;78.60
44111;DHT22;29774;52.664;5.074;2023-06-22T06:45:12;22.30;78.30
44111;DHT22;29774;52.664;5.074;2023-06-22T06:47:39;22.60;77.30
44111;DHT22;29774;52.664;5.074;2023-06-22T06:50:05;22.70;75.10
44111;DHT22;29774;52.664;5.074;2023-06-22T06:52:31;22.70;75.00
44111;DHT22;29774;52.664;5.074;2023-06-22T06:54:58;22.80;74.90
44111;DHT22;29774;52.664;5.074;2023-06-22T06:57:23;23.00;73.40
44111;DHT22;29774;52.664;5.074;2023-06-22T06:59:54;22.90;73.30
44111;DHT22;29774;52.664;5.074;2023-06-22T07:02:21;22.90;73.50
44111;DHT22;29774;52.664;5.074;2023-06-22T07:04:47;23.00;73.50
44111;DHT22;29774;52.664;5.074;2023-06-22T07:07:14;23.20;73.60
44111;DHT22;29774;52.664;5.074;2023-06-22T07:09:40;23.20;72.10
44111;DHT22;29774;52.664;5.074;2023-06-22T07:12:06;23.30;71.90
44111;DHT22;29774;52.664;5.074;2023-06-22T07:14:32;23.40;71.10
44111;DHT22;29774;52.664;5.074;2023-06-22T07:16:58;23.50;71.20
44111;DHT22;29774;52.664;5.074;2023-06-22T07:19:28;23.60;71.20
44111;DHT22;29774;52.664;5.074;2023-06-22T07:21:54;23.70;70.00
44111;DHT22;29774;52.664;5.074;2023-06-22T07:24:21;23.80;70.00
44111;DHT22;29774;52.664;5.074;2023-06-22T07:26:50;24.00;69.00
44111;DHT22;29774;52.664;5.074;2023-06-22T07:29:22;24.10;68.00
44111;DHT22;29774;52.664;5.074;2023-06-22T07:31:50;24.20;68.50
44111;DHT22;29774;52.664;5.074;2023-06-22T07:34:18;24.20;67.40
44111;DHT22;29774;52.664;5.074;2023-06-22T07:36:44;24.20;67.70
44111;DHT22;29774;52.664;5.074;2023-06-22T07:39:11;24.30;67.90
44111;DHT22;29774;52.664;5.074;2023-06-22T07:41:38;24.50;67.10
44111;DHT22;29774;52.664;5.074;2023-06-22T07:44:04;24.50;66.60
44111;DHT22;29774;52.664;5.074;2023-06-22T07:46:30;24.50;66.40
44111;DHT22;29774;52.664;5.074;2023-06-22T07:48:56;24.60;66.90
44111;DHT22;29774;52.664;5.074;2023-06-22T07:51:23;24.70;66.10
44111;DHT22;29774;52.664;5.074;2023-06-22T07:53:49;24.90;64.90
44111;DHT22;29774;52.664;5.074;2023-06-22T07:56:14;24.80;64.40
44111;DHT22;29774;52.664;5.074;2023-06-22T07:58:45;24.90;64.20
44111;DHT22;29774;52.664;5.074;2023-06-22T08:01:11;25.00;63.90
44111;DHT22;29774;52.664;5.074;2023-06-22T08:03:37;25.10;63.70
44111;DHT22;29774;52.664;5.074;2023-06-22T08:06:03;25.30;63.50
44111;DHT22;29774;52.664;5.074;2023-06-22T08:08:29;25.40;63.60
44111;DHT22;29774;52.664;5.074;2023-06-22T08:10:55;25.50;62.70
44111;DHT22;29774;52.664;5.074;2023-06-22T08:13:20;25.60;62.10
44111;DHT22;29774;52.664;5.074;2023-06-22T08:15:46;25.70;62.20
44111;DHT22;29774;52.664;5.074;2023-06-22T08:18:11;25.80;61.10
44111;DHT22;29774;52.664;5.074;2023-06-22T08:20:37;26.20;60.30
44111;DHT22;29774;52.664;5.074;2023-06-22T08:23:04;26.20;60.10
44111;DHT22;29774;52.664;5.074;2023-06-22T08:25:33;26.50;59.10
44111;DHT22;29774;52.664;5.074;2023-06-22T08:28:00;26.70;58.50
44111;DHT22;29774;52.664;5.074;2023-06-22T08:30:25;26.90;58.20
44111;DHT22;29774;52.664;5.074;2023-06-22T08:32:51;26.90;57.00
44111;DHT22;29774;52.664;5.074;2023-06-22T08:35:17;26.70;57.70
44111;DHT22;29774;52.664;5.074;2023-06-22T08:37:43;26.40;58.00
44111;DHT22;29774;52.664;5.074;2023-06-22T08:40:09;26.30;58.40
44111;DHT22;29774;52.664;5.074;2023-06-22T08:42:40;26.40;59.00
44111;DHT22;29774;52.664;5.074;2023-06-22T08:45:06;26.50;58.50
44111;DHT22;29774;52.664;5.074;2023-06-22T08:47:32;26.70;58.10
44111;DHT22;29774;52.664;5.074;2023-06-22T08:49:58;26.80;57.70
44111;DHT22;29774;52.664;5.074;2023-06-22T08:52:24;27.00;56.90
44111;DHT22;29774;52.664;5.074;2023-06-22T08:54:49;27.00;57.40
44111;DHT22;29774;52.664;5.074;2023-06-22T08:57:16;27.10;57.00
44111;DHT22;29774;52.664;5.074;2023-06-22T08:59:42;27.20;56.40
44111;DHT22;29774;52.664;5.074;2023-06-22T09:02:07;27.40;55.90
44111;DHT22;29774;52.664;5.074;2023-06-22T09:04:33;27.50;55.40
44111;DHT22;29774;52.664;5.074;2023-06-22T09:07:02;27.50;55.10
44111;DHT22;29774;52.664;5.074;2023-06-22T09:09:28;27.50;55.70
44111;DHT22;29774;52.664;5.074;2023-06-22T09:11:54;27.40;55.60
44111;DHT22;29774;52.664;5.074;2023-06-22T09:14:20;27.40;55.90
44111;DHT22;29774;52.664;5.074;2023-06-22T09:16:45;27.50;55.90
44111;DHT22;29774;52.664;5.074;2023-06-22T09:19:11;27.60;55.70
44111;DHT22;29774;52.664;5.074;2023-06-22T09:21:37;27.80;55.50
44111;DHT22;29774;52.664;5.074;2023-06-22T09:24:03;27.60;54.90
44111;DHT22;29774;52.664;5.074;2023-06-22T09:26:28;27.60;55.90
44111;DHT22;29774;52.664;5.074;2023-06-22T09:28:54;27.90;55.40
44111;DHT22;29774;52.664;5.074;2023-06-22T09:31:20;27.70;55.10
44111;DHT22;29774;52.664;5.074;2023-06-22T09:33:54;27.60;55.80
44111;DHT22;29774;52.664;5.074;2023-06-22T09:36:23;27.80;55.80
44111;DHT22;29774;52.664;5.074;2023-06-22T09:38:49;27.90;55.00
44111;DHT22;29774;52.664;5.074;2023-06-22T09:41:21;27.70;54.00
44111;DHT22;29774;52.664;5.074;2023-06-22T09:43:47;27.80;53.90
44111;DHT22;29774;52.664;5.074;2023-06-22T09:46:16;27.80;54.40
44111;DHT22;29774;52.664;5.074;2023-06-22T09:48:42;28.10;53.90
44111;DHT22;29774;52.664;5.074;2023-06-22T09:51:07;28.10;53.20
44111;DHT22;29774;52.664;5.074;2023-06-22T09:53:33;27.90;53.20
44111;DHT22;29774;52.664;5.074;2023-06-22T09:56:00;27.80;53.70
44111;DHT22;29774;52.664;5.074;2023-06-22T09:58:31;27.70;54.20
44111;DHT22;29774;52.664;5.074;2023-06-22T10:00:57;27.70;54.10
44111;DHT22;29774;52.664;5.074;2023-06-22T10:03:23;27.80;54.60
44111;DHT22;29774;52.664;5.074;2023-06-22T10:05:48;27.80;53.40
44111;DHT22;29774;52.664;5.074;2023-06-22T10:08:14;27.90;54.00
44111;DHT22;29774;52.664;5.074;2023-06-22T10:10:44;27.90;53.20
44111;DHT22;29774;52.664;5.074;2023-06-22T10:13:10;27.90;54.10
44111;DHT22;29774;52.664;5.074;2023-06-22T10:15:38;27.90;53.90
44111;DHT22;29774;52.664;5.074;2023-06-22T10:18:04;27.80;53.60
44111;DHT22;29774;52.664;5.074;2023-06-22T10:20:30;27.90;52.60
44111;DHT22;29774;52.664;5.074;2023-06-22T10:22:57;27.80;53.30
44111;DHT22;29774;52.664;5.074;2023-06-22T10:25:23;27.80;53.70
44111;DHT22;29774;52.664;5.074;2023-06-22T10:27:48;27.70;53.70
44111;DHT22;29774;52.664;5.074;2023-06-22T10:30:14;27.70;54.30
44111;DHT22;29774;52.664;5.074;2023-06-22T10:32:41;27.80;54.10
44111;DHT22;29774;52.664;5.074;2023-06-22T10:35:09;27.80;54.40
44111;DHT22;29774;52.664;5.074;2023-06-22T10:37:36;27.70;54.50
44111;DHT22;29774;52.664;5.074;2023-06-22T10:40:02;27.70;54.40
44111;DHT22;29774;52.664;5.074;2023-06-22T10:42:29;27.50;54.40
44111;DHT22;29774;52.664;5.074;2023-06-22T10:44:56;27.40;55.00
44111;DHT22;29774;52.664;5.074;2023-06-22T10:47:21;27.30;55.20
44111;DHT22;29774;52.664;5.074;2023-06-22T10:49:47;27.30;55.70
44111;DHT22;29774;52.664;5.074;2023-06-22T10:52:12;27.60;55.20
44111;DHT22;29774;52.664;5.074;2023-06-22T10:54:38;27.50;54.80
44111;DHT22;29774;52.664;5.074;2023-06-22T10:57:04;27.50;55.50
44111;DHT22;29774;52.664;5.074;2023-06-22T10:59:30;27.60;55.40
44111;DHT22;29774;52.664;5.074;2023-06-22T11:01:58;27.70;54.90
44111;DHT22;29774;52.664;5.074;2023-06-22T11:04:25;27.50;55.50
44111;DHT22;29774;52.664;5.074;2023-06-22T11:06:50;27.60;55.00
44111;DHT22;29774;52.664;5.074;2023-06-22T11:09:17;27.70;54.80
44111;DHT22;29774;52.664;5.074;2023-06-22T11:11:51;27.60;54.40
44111;DHT22;29774;52.664;5.074;2023-06-22T11:14:19;27.40;54.90
44111;DHT22;29774;52.664;5.074;2023-06-22T11:16:46;27.40;55.10
44111;DHT22;29774;52.664;5.074;2023-06-22T11:19:12;27.40;55.70
44111;DHT22;29774;52.664;5.074;2023-06-22T11:21:38;27.60;55.70
44111;DHT22;29774;52.664;5.074;2023-06-22T11:24:04;27.70;55.20
44111;DHT22;29774;52.664;5.074;2023-06-22T11:26:30;27.70;54.50
44111;DHT22;29774;52.664;5.074;2023-06-22T11:28:57;27.50;54.40
44111;DHT22;29774;52.664;5.074;2023-06-22T11:31:23;27.40;54.80
44111;DHT22;29774;52.664;5.074;2023-06-22T11:33:50;27.30;55.30
44111;DHT22;29774;52.664;5.074;2023-06-22T11:36:16;27.20;55.60
44111;DHT22;29774;52.664;5.074;2023-06-22T11:38:42;27.10;55.50
44111;DHT22;29774;52.664;5.074;2023-06-22T11:41:09;26.90;55.70
44111;DHT22;29774;52.664;5.074;2023-06-22T11:43:35;26.90;56.00
44111;DHT22;29774;52.664;5.074;2023-06-22T11:46:03;26.80;55.90
44111;DHT22;29774;52.664;5.074;2023-06-22T11:48:30;26.70;55.80
44111;DHT22;29774;52.664;5.074;2023-06-22T11:50:57;26.50;56.00
44111;DHT22;29774;52.664;5.074;2023-06-22T11:53:24;26.50;55.80
44111;DHT22;29774;52.664;5.074;2023-06-22T11:55:50;26.50;56.20
44111;DHT22;29774;52.664;5.074;2023-06-22T11:58:16;26.50;55.80
44111;DHT22;29774;52.664;5.074;2023-06-22T12:00:42;26.50;55.10
44111;DHT22;29774;52.664;5.074;2023-06-22T12:03:11;26.40;54.70
44111;DHT22;29774;52.664;5.074;2023-06-22T12:05:38;26.20;55.00
44111;DHT22;29774;52.664;5.074;2023-06-22T12:08:04;26.30;54.30
44111;DHT22;29774;52.664;5.074;2023-06-22T12:10:29;26.30;55.00
44111;DHT22;29774;52.664;5.074;2023-06-22T12:12:55;26.20;54.40
44111;DHT22;29774;52.664;5.074;2023-06-22T12:15:23;26.20;54.60
44111;DHT22;29774;52.664;5.074;2023-06-22T12:17:48;26.20;53.90
44111;DHT22;29774;52.664;5.074;2023-06-22T12:20:14;26.10;55.10
44111;DHT22;29774;52.664;5.074;2023-06-22T12:22:41;26.10;54.60
44111;DHT22;29774;52.664;5.074;2023-06-22T12:25:07;26.10;54.60
44111;DHT22;29774;52.664;5.074;2023-06-22T12:27:34;26.10;54.20
44111;DHT22;29774;52.664;5.074;2023-06-22T12:30:00;26.00;53.70
44111;DHT22;29774;52.664;5.074;2023-06-22T12:32:25;26.10;55.20
44111;DHT22;29774;52.664;5.074;2023-06-22T12:34:51;26.00;54.80
44111;DHT22;29774;52.664;5.074;2023-06-22T12:37:17;26.00;54.00
44111;DHT22;29774;52.664;5.074;2023-06-22T12:39:43;25.80;53.80
44111;DHT22;29774;52.664;5.074;2023-06-22T12:42:09;25.90;53.80
44111;DHT22;29774;52.664;5.074;2023-06-22T12:44:40;25.80;53.80
44111;DHT22;29774;52.664;5.074;2023-06-22T12:47:06;25.80;55.00
44111;DHT22;29774;52.664;5.074;2023-06-22T12:49:34;25.80;55.70
44111;DHT22;29774;52.664;5.074;2023-06-22T12:52:00;25.70;56.60
44111;DHT22;29774;52.664;5.074;2023-06-22T12:54:26;25.70;57.30
44111;DHT22;29774;52.664;5.074;2023-06-22T12:56:51;25.70;57.10
44111;DHT22;29774;52.664;5.074;2023-06-22T12:59:18;25.60;58.20
44111;DHT22;29774;52.664;5.074;2023-06-22T13:01:44;25.60;58.80
44111;DHT22;29774;52.664;5.074;2023-06-22T13:04:11;25.60;58.80
44111;DHT22;29774;52.664;5.074;2023-06-22T13:06:40;25.50;58.90
44111;DHT22;29774;52.664;5.074;2023-06-22T13:09:06;25.60;58.70
44111;DHT22;29774;52.664;5.074;2023-06-22T13:11:31;25.60;58.20
44111;DHT22;29774;52.664;5.074;2023-06-22T13:13:57;25.50;58.50
44111;DHT22;29774;52.664;5.074;2023-06-22T13:16:23;25.40;58.60
44111;DHT22;29774;52.664;5.074;2023-06-22T13:18:48;25.40;58.80
44111;DHT22;29774;52.664;5.074;2023-06-22T13:21:14;25.40;59.10
44111;DHT22;29774;52.664;5.074;2023-06-22T13:23:40;25.40;59.40
44111;DHT22;29774;52.664;5.074;2023-06-22T13:26:09;25.40;59.60
44111;DHT22;29774;52.664;5.074;2023-06-22T13:28:34;25.30;59.20
44111;DHT22;29774;52.664;5.074;2023-06-22T13:31:00;25.30;59.90
44111;DHT22;29774;52.664;5.074;2023-06-22T13:33:26;25.30;60.30
44111;DHT22;29774;52.664;5.074;2023-06-22T13:35:51;25.30;60.40
44111;DHT22;29774;52.664;5.074;2023-06-22T13:38:17;25.30;60.30
44111;DHT22;29774;52.664;5.074;2023-06-22T13:40:43;25.30;59.90
44111;DHT22;29774;52.664;5.074;2023-06-22T13:43:10;25.10;60.30
44111;DHT22;29774;52.664;5.074;2023-06-22T13:45:35;25.00;60.90
44111;DHT22;29774;52.664;5.074;2023-06-22T13:48:01;25.00;61.00
44111;DHT22;29774;52.664;5.074;2023-06-22T13:50:27;24.90;61.20
44111;DHT22;29774;52.664;5.074;2023-06-22T13:52:54;24.90;61.50
44111;DHT22;29774;52.664;5.074;2023-06-22T13:55:20;25.00;60.90
44111;DHT22;29774;52.664;5.074;2023-06-22T13:57:46;24.90;61.30
44111;DHT22;29774;52.664;5.074;2023-06-22T14:00:12;24.80;62.10
44111;DHT22;29774;52.664;5.074;2023-06-22T14:02:38;24.80;61.90
44111;DHT22;29774;52.664;5.074;2023-06-22T14:05:07;24.80;62.10
44111;DHT22;29774;52.664;5.074;2023-06-22T14:07:33;24.90;62.00
44111;DHT22;29774;52.664;5.074;2023-06-22T14:09:59;24.90;62.40
44111;DHT22;29774;52.664;5.074;2023-06-22T14:12:24;24.80;62.90
44111;DHT22;29774;52.664;5.074;2023-06-22T14:14:50;24.80;62.70
44111;DHT22;29774;52.664;5.074;2023-06-22T14:17:16;24.90;62.80
44111;DHT22;29774;52.664;5.074;2023-06-22T14:19:42;25.00;62.50
44111;DHT22;29774;52.664;5.074;2023-06-22T14:22:07;25.00;62.30
44111;DHT22;29774;52.664;5.074;2023-06-22T14:24:33;24.90;62.70
44111;DHT22;29774;52.664;5.074;2023-06-22T14:26:59;25.10;62.80
44111;DHT22;29774;52.664;5.074;2023-06-22T14:29:27;24.90;63.00
44111;DHT22;29774;52.664;5.074;2023-06-22T14:31:53;24.90;63.00
44111;DHT22;29774;52.664;5.074;2023-06-22T14:34:19;24.90;62.80
44111;DHT22;29774;52.664;5.074;2023-06-22T14:36:44;24.90;62.80
44111;DHT22;29774;52.664;5.074;2023-06-22T14:39:10;25.10;62.50
44111;DHT22;29774;52.664;5.074;2023-06-22T14:41:35;25.00;62.80
44111;DHT22;29774;52.664;5.074;2023-06-22T14:44:01;24.90;63.10
44111;DHT22;29774;52.664;5.074;2023-06-22T14:46:28;24.80;63.50
44111;DHT22;29774;52.664;5.074;2023-06-22T14:48:54;24.80;63.00
44111;DHT22;29774;52.664;5.074;2023-06-22T14:51:19;24.80;63.10
44111;DHT22;29774;52.664;5.074;2023-06-22T14:53:45;24.60;63.50
44111;DHT22;29774;52.664;5.074;2023-06-22T14:56:12;24.70;63.60
44111;DHT22;29774;52.664;5.074;2023-06-22T14:58:40;24.70;63.30
44111;DHT22;29774;52.664;5.074;2023-06-22T15:01:07;24.70;62.90
44111;DHT22;29774;52.664;5.074;2023-06-22T15:03:34;24.50;63.30
44111;DHT22;29774;52.664;5.074;2023-06-22T15:06:02;24.40;63.10
44111;DHT22;29774;52.664;5.074;2023-06-22T15:08:28;24.60;62.90
44111;DHT22;29774;52.664;5.074;2023-06-22T15:10:54;24.70;62.20
44111;DHT22;29774;52.664;5.074;2023-06-22T15:13:20;24.70;62.10
44111;DHT22;29774;52.664;5.074;2023-06-22T15:15:48;24.50;62.60
44111;DHT22;29774;52.664;5.074;2023-06-22T15:18:14;24.40;62.30
44111;DHT22;29774;52.664;5.074;2023-06-22T15:20:40;24.30;60.80
44111;DHT22;29774;52.664;5.074;2023-06-22T15:23:07;24.20;60.10
44111;DHT22;29774;52.664;5.074;2023-06-22T15:25:34;24.20;60.20
44111;DHT22;29774;52.664;5.074;2023-06-22T15:27:59;24.00;62.60
44111;DHT22;29774;52.664;5.074;2023-06-22T15:30:25;24.10;60.80
44111;DHT22;29774;52.664;5.074;2023-06-22T15:32:51;24.00;61.20
44111;DHT22;29774;52.664;5.074;2023-06-22T15:35:17;24.10;61.90
44111;DHT22;29774;52.664;5.074;2023-06-22T15:37:44;24.00;59.80
44111;DHT22;29774;52.664;5.074;2023-06-22T15:40:10;23.80;60.30